sensor_id;sensor_type;location;lat;lon;timestamp;P1;durP1;ratioP1;P2;durP2;ratioP2
11269;SDS011;5692;48.956;9.200;2023-03-19T00:02:14;160.38;;;152.68;;
11269;SDS011;5692;48.956;9.200;2023-03-19T00:04:40;157.88;;;150.27;;
11269;SDS011;5692;48.956;9.200;2023-03-19T00:07:06;156.07;;;148.57;;
11269;SDS011;5692;48.956;9.200;2023-03-19T00:09:32;153.35;;;146.00;;
11269;SDS011;5692;48.956;9.200;2023-03-19T00:11:58;152.23;;;144.93;;
11269;SDS011;5692;48.956;9.200;2023-03-19T00:14:25;153.98;;;146.57;;
11269;SDS011;5692;48.956;9.200;2023-03-19T00:16:51;154.57;;;147.17;;
11269;SDS011;5692;48.956;9.200;2023-03-19T00:19:19;153.98;;;146.57;;
11269;SDS011;5692;48.956;9.200;2023-03-19T00:21:46;156.00;;;148.52;;
11269;SDS011;5692;48.956;9.200;2023-03-19T00:24:12;155.93;;;148.45;;
11269;SDS011;5692;48.956;9.200;2023-03-19T00:26:38;159.15;;;151.55;;
11269;SDS011;5692;48.956;9.200;2023-03-19T00:29:05;161.77;;;154.02;;
11269;SDS011;5692;48.956;9.200;2023-03-19T00:31:31;165.80;;;157.85;;
11269;SDS011;5692;48.956;9.200;2023-03-19T00:33:57;157.02;;;149.52;;
11269;SDS011;5692;48.956;9.200;2023-03-19T00:36:24;154.57;;;147.18;;
11269;SDS011;5692;48.956;9.200;2023-03-19T00:38:51;160.93;;;153.23;;
11269;SDS011;5692;48.956;9.200;2023-03-19T00:41:17;149.25;;;142.07;;
11269;SDS011;5692;48.956;9.200;2023-03-19T00:43:44;160.48;;;152.77;;
11269;SDS011;5692;48.956;9.200;2023-03-19T00:46:10;159.13;;;151.52;;
11269;SDS011;5692;48.956;9.200;2023-03-19T00:48:36;159.07;;;151.45;;
11269;SDS011;5692;48.956;9.200;2023-03-19T00:51:03;155.07;;;147.68;;
11269;SDS011;5692;48.956;9.200;2023-03-19T00:53:30;156.57;;;149.07;;
11269;SDS011;5692;48.956;9.200;2023-03-19T00:55:56;156.15;;;148.65;;
11269;SDS011;5692;48.956;9.200;2023-03-19T00:58:22;148.90;;;141.77;;
11269;SDS011;5692;48.956;9.200;2023-03-19T01:00:50;155.53;;;148.07;;
11269;SDS011;5692;48.956;9.200;2023-03-19T01:03:17;155.68;;;148.20;;
11269;SDS011;5692;48.956;9.200;2023-03-19T01:05:42;146.20;;;139.20;;
11269;SDS011;5692;48.956;9.200;2023-03-19T01:08:08;148.70;;;141.60;;
11269;SDS011;5692;48.956;9.200;2023-03-19T01:10:35;153.60;;;146.25;;
11269;SDS011;5692;48.956;9.200;2023-03-19T01:13:01;152.18;;;144.88;;
11269;SDS011;5692;48.956;9.200;2023-03-19T01:15:27;154.82;;;147.43;;
11269;SDS011;5692;48.956;9.200;2023-03-19T01:17:53;148.68;;;141.57;;
11269;SDS011;5692;48.956;9.200;2023-03-19T01:20:19;153.50;;;146.10;;
11269;SDS011;5692;48.956;9.200;2023-03-19T01:22:48;140.52;;;133.80;;
11269;SDS011;5692;48.956;9.200;2023-03-19T01:25:15;144.05;;;137.15;;
11269;SDS011;5692;48.956;9.200;2023-03-19T01:27:41;153.30;;;145.95;;
11269;SDS011;5692;48.956;9.200;2023-03-19T01:30:07;148.00;;;140.90;;
11269;SDS011;5692;48.956;9.200;2023-03-19T01:32:34;149.50;;;142.32;;
11269;SDS011;5692;48.956;9.200;2023-03-19T01:35:00;146.95;;;139.90;;
11269;SDS011;5692;48.956;9.200;2023-03-19T01:37:26;153.07;;;145.73;;
11269;SDS011;5692;48.956;9.200;2023-03-19T01:39:52;158.77;;;151.18;;
11269;SDS011;5692;48.956;9.200;2023-03-19T01:42:18;171.35;;;163.15;;
11269;SDS011;5692;48.956;9.200;2023-03-19T01:44:44;164.98;;;157.07;;
11269;SDS011;5692;48.956;9.200;2023-03-19T01:49:39;165.70;;;157.75;;
11269;SDS011;5692;48.956;9.200;2023-03-19T01:52:05;161.98;;;154.18;;
11269;SDS011;5692;48.956;9.200;2023-03-19T01:54:31;152.10;;;144.80;;
11269;SDS011;5692;48.956;9.200;2023-03-19T01:56:59;145.60;;;138.60;;
11269;SDS011;5692;48.956;9.200;2023-03-19T01:59:32;145.43;;;138.43;;
11269;SDS011;5692;48.956;9.200;2023-03-19T02:02:09;152.73;;;145.43;;
11269;SDS011;5692;48.956;9.200;2023-03-19T02:04:37;161.27;;;153.57;;
11269;SDS011;5692;48.956;9.200;2023-03-19T02:07:03;171.43;;;163.23;;
11269;SDS011;5692;48.956;9.200;2023-03-19T02:09:30;158.93;;;151.32;;
11269;SDS011;5692;48.956;9.200;2023-03-19T02:11:56;155.88;;;148.40;;
11269;SDS011;5692;48.956;9.200;2023-03-19T02:14:23;166.07;;;158.13;;
11269;SDS011;5692;48.956;9.200;2023-03-19T02:16:50;167.10;;;159.10;;
11269;SDS011;5692;48.956;9.200;2023-03-19T02:19:17;160.13;;;152.43;;
11269;SDS011;5692;48.956;9.200;2023-03-19T02:21:44;158.00;;;150.40;;
11269;SDS011;5692;48.956;9.200;2023-03-19T02:24:15;158.10;;;150.52;;
11269;SDS011;5692;48.956;9.200;2023-03-19T02:26:42;159.45;;;151.82;;
11269;SDS011;5692;48.956;9.200;2023-03-19T02:29:09;156.50;;;149.00;;
11269;SDS011;5692;48.956;9.200;2023-03-19T02:31:35;157.38;;;149.82;;
11269;SDS011;5692;48.956;9.200;2023-03-19T02:34:02;153.98;;;146.57;;
11269;SDS011;5692;48.956;9.200;2023-03-19T02:36:40;145.32;;;138.32;;
11269;SDS011;5692;48.956;9.200;2023-03-19T02:39:08;146.27;;;139.25;;
11269;SDS011;5692;48.956;9.200;2023-03-19T02:41:37;155.98;;;148.48;;
11269;SDS011;5692;48.956;9.200;2023-03-19T02:44:06;150.13;;;142.93;;
11269;SDS011;5692;48.956;9.200;2023-03-19T02:46:33;151.63;;;144.32;;
11269;SDS011;5692;48.956;9.200;2023-03-19T02:48:59;153.45;;;146.10;;
11269;SDS011;5692;48.956;9.200;2023-03-19T02:51:25;155.10;;;147.70;;
11269;SDS011;5692;48.956;9.200;2023-03-19T02:53:51;156.13;;;148.63;;
11269;SDS011;5692;48.956;9.200;2023-03-19T02:56:17;154.60;;;147.20;;
11269;SDS011;5692;48.956;9.200;2023-03-19T02:58:43;160.73;;;153.02;;
11269;SDS011;5692;48.956;9.200;2023-03-19T03:01:09;160.82;;;153.13;;
11269;SDS011;5692;48.956;9.200;2023-03-19T03:03:35;164.80;;;156.90;;
11269;SDS011;5692;48.956;9.200;2023-03-19T03:06:02;156.63;;;149.13;;
11269;SDS011;5692;48.956;9.200;2023-03-19T03:08:28;160.75;;;153.05;;
11269;SDS011;5692;48.956;9.200;2023-03-19T03:10:54;159.43;;;151.77;;
11269;SDS011;5692;48.956;9.200;2023-03-19T03:13:20;150.37;;;143.17;;
11269;SDS011;5692;48.956;9.200;2023-03-19T03:15:46;160.40;;;152.70;;
11269;SDS011;5692;48.956;9.200;2023-03-19T03:18:12;155.00;;;147.57;;
11269;SDS011;5692;48.956;9.200;2023-03-19T03:20:38;146.27;;;139.27;;
11269;SDS011;5692;48.956;9.200;2023-03-19T03:23:03;157.17;;;149.67;;
11269;SDS011;5692;48.956;9.200;2023-03-19T03:25:30;162.07;;;154.27;;
11269;SDS011;5692;48.956;9.200;2023-03-19T03:27:56;154.20;;;146.80;;
11269;SDS011;5692;48.956;9.200;2023-03-19T03:30:22;156.90;;;149.40;;
11269;SDS011;5692;48.956;9.200;2023-03-19T03:32:49;156.70;;;149.20;;
11269;SDS011;5692;48.956;9.200;2023-03-19T03:35:15;162.27;;;154.50;;
11269;SDS011;5692;48.956;9.200;2023-03-19T03:37:45;158.98;;;151.35;;
11269;SDS011;5692;48.956;9.200;2023-03-19T03:40:11;166.20;;;158.20;;
11269;SDS011;5692;48.956;9.200;2023-03-19T03:42:38;164.80;;;156.90;;
11269;SDS011;5692;48.956;9.200;2023-03-19T03:45:04;168.35;;;160.25;;
11269;SDS011;5692;48.956;9.200;2023-03-19T03:47:30;165.90;;;157.93;;
11269;SDS011;5692;48.956;9.200;2023-03-19T03:49:56;168.37;;;160.27;;
11269;SDS011;5692;48.956;9.200;2023-03-19T03:52:22;168.35;;;160.27;;
11269;SDS011;5692;48.956;9.200;2023-03-19T03:54:48;168.55;;;160.45;;
11269;SDS011;5692;48.956;9.200;2023-03-19T03:57:14;160.15;;;152.45;;
11269;SDS011;5692;48.956;9.200;2023-03-19T03:59:40;170.95;;;162.77;;
11269;SDS011;5692;48.956;9.200;2023-03-19T04:02:06;176.02;;;167.60;;
11269;SDS011;5692;48.956;9.200;2023-03-19T04:04:33;183.38;;;174.57;;
11269;SDS011;5692;48.956;9.200;2023-03-19T04:06:59;162.93;;;155.13;;
11269;SDS011;5692;48.956;9.200;2023-03-19T04:09:25;169.25;;;161.15;;
11269;SDS011;5692;48.956;9.200;2023-03-19T04:11:52;164.32;;;156.43;;
11269;SDS011;5692;48.956;9.200;2023-03-19T04:14:18;164.00;;;156.15;;
11269;SDS011;5692;48.956;9.200;2023-03-19T04:16:44;171.77;;;163.52;;
11269;SDS011;5692;48.956;9.200;2023-03-19T04:19:10;159.35;;;151.70;;
11269;SDS011;5692;48.956;9.200;2023-03-19T04:21:36;159.83;;;152.13;;
11269;SDS011;5692;48.956;9.200;2023-03-19T04:24:02;157.85;;;150.30;;
11269;SDS011;5692;48.956;9.200;2023-03-19T04:26:28;163.35;;;155.55;;
11269;SDS011;5692;48.956;9.200;2023-03-19T04:28:54;147.68;;;140.57;;
11269;SDS011;5692;48.956;9.200;2023-03-19T04:31:20;160.90;;;153.20;;
11269;SDS011;5692;48.956;9.200;2023-03-19T04:33:46;168.23;;;160.17;;
11269;SDS011;5692;48.956;9.200;2023-03-19T04:36:13;178.70;;;170.10;;
11269;SDS011;5692;48.956;9.200;2023-03-19T04:38:39;166.10;;;158.13;;
11269;SDS011;5692;48.956;9.200;2023-03-19T04:41:05;181.77;;;173.07;;
11269;SDS011;5692;48.956;9.200;2023-03-19T04:43:31;164.00;;;156.15;;
11269;SDS011;5692;48.956;9.200;2023-03-19T04:45:57;156.47;;;148.97;;
11269;SDS011;5692;48.956;9.200;2023-03-19T04:48:24;163.38;;;155.55;;
11269;SDS011;5692;48.956;9.200;2023-03-19T04:50:50;170.05;;;161.90;;
11269;SDS011;5692;48.956;9.200;2023-03-19T04:53:17;159.57;;;151.93;;
11269;SDS011;5692;48.956;9.200;2023-03-19T04:55:44;168.15;;;160.10;;
11269;SDS011;5692;48.956;9.200;2023-03-19T04:58:11;159.77;;;152.10;;
11269;SDS011;5692;48.956;9.200;2023-03-19T05:00:37;149.70;;;142.52;;
11269;SDS011;5692;48.956;9.200;2023-03-19T05:03:03;169.15;;;161.05;;
11269;SDS011;5692;48.956;9.200;2023-03-19T05:05:29;176.60;;;168.13;;
11269;SDS011;5692;48.956;9.200;2023-03-19T05:07:55;170.63;;;162.43;;
11269;SDS011;5692;48.956;9.200;2023-03-19T05:10:21;169.57;;;161.48;;
11269;SDS011;5692;48.956;9.200;2023-03-19T05:12:47;167.45;;;159.43;;
11269;SDS011;5692;48.956;9.200;2023-03-19T05:15:13;165.45;;;157.55;;
11269;SDS011;5692;48.956;9.200;2023-03-19T05:17:39;170.93;;;162.73;;
11269;SDS011;5692;48.956;9.200;2023-03-19T05:20:05;162.27;;;154.50;;
11269;SDS011;5692;48.956;9.200;2023-03-19T05:22:32;153.00;;;145.65;;
11269;SDS011;5692;48.956;9.200;2023-03-19T05:24:58;167.95;;;159.90;;
11269;SDS011;5692;48.956;9.200;2023-03-19T05:27:24;166.87;;;158.87;;
11269;SDS011;5692;48.956;9.200;2023-03-19T05:29:50;176.95;;;168.45;;
11269;SDS011;5692;48.956;9.200;2023-03-19T05:32:16;162.45;;;154.65;;
11269;SDS011;5692;48.956;9.200;2023-03-19T05:34:42;159.82;;;152.15;;
11269;SDS011;5692;48.956;9.200;2023-03-19T05:37:09;158.53;;;150.93;;
11269;SDS011;5692;48.956;9.200;2023-03-19T05:39:34;157.95;;;150.35;;
11269;SDS011;5692;48.956;9.200;2023-03-19T05:42:00;164.30;;;156.43;;
11269;SDS011;5692;48.956;9.200;2023-03-19T05:44:26;161.10;;;153.37;;
11269;SDS011;5692;48.956;9.200;2023-03-19T05:46:52;155.40;;;147.95;;
11269;SDS011;5692;48.956;9.200;2023-03-19T05:49:19;159.80;;;152.13;;
11269;SDS011;5692;48.956;9.200;2023-03-19T05:51:46;162.00;;;154.23;;
11269;SDS011;5692;48.956;9.200;2023-03-19T05:54:12;159.25;;;151.60;;
11269;SDS011;5692;48.956;9.200;2023-03-19T05:56:38;151.50;;;144.25;;
11269;SDS011;5692;48.956;9.200;2023-03-19T05:59:04;150.50;;;143.30;;
11269;SDS011;5692;48.956;9.200;2023-03-19T06:01:30;162.20;;;154.40;;
11269;SDS011;5692;48.956;9.200;2023-03-19T06:03:56;154.00;;;146.60;;
11269;SDS011;5692;48.956;9.200;2023-03-19T06:06:22;141.70;;;134.90;;
11269;SDS011;5692;48.956;9.200;2023-03-19T06:08:48;152.27;;;144.97;;
11269;SDS011;5692;48.956;9.200;2023-03-19T06:11:14;146.70;;;139.67;;
11269;SDS011;5692;48.956;9.200;2023-03-19T06:13:40;148.30;;;141.20;;
11269;SDS011;5692;48.956;9.200;2023-03-19T06:16:07;153.68;;;146.27;;
11269;SDS011;5692;48.956;9.200;2023-03-19T06:18:33;151.90;;;144.60;;
11269;SDS011;5692;48.956;9.200;2023-03-19T06:21:00;155.82;;;148.35;;
11269;SDS011;5692;48.956;9.200;2023-03-19T06:23:26;165.80;;;157.88;;
11269;SDS011;5692;48.956;9.200;2023-03-19T06:25:52;145.93;;;138.93;;
11269;SDS011;5692;48.956;9.200;2023-03-19T06:28:18;147.73;;;140.63;;
11269;SDS011;5692;48.956;9.200;2023-03-19T06:30:44;154.57;;;147.13;;
11269;SDS011;5692;48.956;9.200;2023-03-19T06:33:10;157.48;;;149.93;;
11269;SDS011;5692;48.956;9.200;2023-03-19T06:35:36;142.50;;;135.68;;
11269;SDS011;5692;48.956;9.200;2023-03-19T06:38:02;154.95;;;147.55;;
11269;SDS011;5692;48.956;9.200;2023-03-19T06:40:28;153.15;;;145.80;;
11269;SDS011;5692;48.956;9.200;2023-03-19T06:42:54;152.55;;;145.25;;
11269;SDS011;5692;48.956;9.200;2023-03-19T06:45:20;154.38;;;146.98;;
11269;SDS011;5692;48.956;9.200;2023-03-19T06:47:46;140.07;;;133.35;;
11269;SDS011;5692;48.956;9.200;2023-03-19T06:50:13;149.45;;;142.25;;
11269;SDS011;5692;48.956;9.200;2023-03-19T06:52:40;143.15;;;136.25;;
11269;SDS011;5692;48.956;9.200;2023-03-19T06:55:06;149.18;;;142.02;;
11269;SDS011;5692;48.956;9.200;2023-03-19T06:57:33;152.60;;;145.30;;
11269;SDS011;5692;48.956;9.200;2023-03-19T06:59:59;155.90;;;148.43;;
11269;SDS011;5692;48.956;9.200;2023-03-19T07:02:25;144.27;;;137.35;;
11269;SDS011;5692;48.956;9.200;2023-03-19T07:04:51;137.50;;;130.90;;
11269;SDS011;5692;48.956;9.200;2023-03-19T07:07:17;138.63;;;131.97;;
11269;SDS011;5692;48.956;9.200;2023-03-19T07:09:44;141.27;;;134.48;;
11269;SDS011;5692;48.956;9.200;2023-03-19T07:12:10;146.73;;;139.70;;
11269;SDS011;5692;48.956;9.200;2023-03-19T07:14:36;157.05;;;149.55;;
11269;SDS011;5692;48.956;9.200;2023-03-19T07:17:02;154.75;;;147.35;;
11269;SDS011;5692;48.956;9.200;2023-03-19T07:19:28;156.67;;;149.17;;
11269;SDS011;5692;48.956;9.200;2023-03-19T07:21:54;149.98;;;142.77;;
11269;SDS011;5692;48.956;9.200;2023-03-19T07:24:20;147.43;;;140.33;;
11269;SDS011;5692;48.956;9.200;2023-03-19T07:26:46;150.88;;;143.68;;
11269;SDS011;5692;48.956;9.200;2023-03-19T07:29:12;158.60;;;151.00;;
11269;SDS011;5692;48.956;9.200;2023-03-19T07:31:38;155.77;;;148.27;;
11269;SDS011;5692;48.956;9.200;2023-03-19T07:34:04;162.25;;;154.45;;
11269;SDS011;5692;48.956;9.200;2023-03-19T07:36:31;158.48;;;150.88;;
11269;SDS011;5692;48.956;9.200;2023-03-19T07:38:57;157.38;;;149.82;;
11269;SDS011;5692;48.956;9.200;2023-03-19T07:41:23;152.43;;;145.13;;
11269;SDS011;5692;48.956;9.200;2023-03-19T07:43:49;161.45;;;153.75;;
11269;SDS011;5692;48.956;9.200;2023-03-19T07:46:15;170.80;;;162.60;;
11269;SDS011;5692;48.956;9.200;2023-03-19T07:48:42;151.40;;;144.15;;
11269;SDS011;5692;48.956;9.200;2023-03-19T07:51:08;160.25;;;152.57;;
11269;SDS011;5692;48.956;9.200;2023-03-19T07:53:34;160.80;;;153.10;;
11269;SDS011;5692;48.956;9.200;2023-03-19T07:56:00;150.95;;;143.73;;
11269;SDS011;5692;48.956;9.200;2023-03-19T07:58:26;166.63;;;158.63;;
11269;SDS011;5692;48.956;9.200;2023-03-19T08:00:52;158.02;;;150.43;;
11269;SDS011;5692;48.956;9.200;2023-03-19T08:03:18;166.15;;;158.20;;
11269;SDS011;5692;48.956;9.200;2023-03-19T08:05:47;159.95;;;152.25;;
11269;SDS011;5692;48.956;9.200;2023-03-19T08:08:13;158.30;;;150.70;;
11269;SDS011;5692;48.956;9.200;2023-03-19T08:10:39;154.55;;;147.15;;
11269;SDS011;5692;48.956;9.200;2023-03-19T08:13:05;155.10;;;147.70;;
11269;SDS011;5692;48.956;9.200;2023-03-19T08:15:31;146.80;;;139.75;;
11269;SDS011;5692;48.956;9.200;2023-03-19T08:18:01;157.40;;;149.85;;
11269;SDS011;5692;48.956;9.200;2023-03-19T08:20:28;167.55;;;159.52;;
11269;SDS011;5692;48.956;9.200;2023-03-19T08:22:54;168.57;;;160.48;;
11269;SDS011;5692;48.956;9.200;2023-03-19T08:25:21;156.68;;;149.18;;
11269;SDS011;5692;48.956;9.200;2023-03-19T08:27:47;160.80;;;153.10;;
11269;SDS011;5692;48.956;9.200;2023-03-19T08:30:14;199.00;;;189.50;;
11269;SDS011;5692;48.956;9.200;2023-03-19T08:32:40;199.00;;;189.45;;
11269;SDS011;5692;48.956;9.200;2023-03-19T08:35:09;187.23;;;178.27;;
11269;SDS011;5692;48.956;9.200;2023-03-19T08:37:35;241.65;;;230.07;;
11269;SDS011;5692;48.956;9.200;2023-03-19T08:40:01;214.38;;;204.13;;
11269;SDS011;5692;48.956;9.200;2023-03-19T08:42:28;180.45;;;171.80;;
11269;SDS011;5692;48.956;9.200;2023-03-19T08:44:55;175.13;;;166.73;;
11269;SDS011;5692;48.956;9.200;2023-03-19T08:47:21;180.32;;;171.73;;
11269;SDS011;5692;48.956;9.200;2023-03-19T08:49:48;171.70;;;163.50;;
11269;SDS011;5692;48.956;9.200;2023-03-19T08:52:15;178.27;;;169.75;;
11269;SDS011;5692;48.956;9.200;2023-03-19T08:54:41;171.27;;;163.07;;
11269;SDS011;5692;48.956;9.200;2023-03-19T08:57:07;169.73;;;161.57;;
11269;SDS011;5692;48.956;9.200;2023-03-19T08:59:33;159.80;;;152.13;;
11269;SDS011;5692;48.956;9.200;2023-03-19T09:01:59;173.68;;;165.38;;
11269;SDS011;5692;48.956;9.200;2023-03-19T09:04:25;173.98;;;165.65;;
11269;SDS011;5692;48.956;9.200;2023-03-19T09:06:51;170.57;;;162.40;;
11269;SDS011;5692;48.956;9.200;2023-03-19T09:09:18;179.40;;;170.80;;
11269;SDS011;5692;48.956;9.200;2023-03-19T09:11:44;179.73;;;171.10;;
11269;SDS011;5692;48.956;9.200;2023-03-19T09:14:11;180.75;;;172.07;;
11269;SDS011;5692;48.956;9.200;2023-03-19T09:16:37;192.25;;;183.05;;
11269;SDS011;5692;48.956;9.200;2023-03-19T09:19:04;186.10;;;177.20;;
11269;SDS011;5692;48.956;9.200;2023-03-19T09:21:31;180.00;;;171.40;;
11269;SDS011;5692;48.956;9.200;2023-03-19T09:23:57;180.40;;;171.77;;
11269;SDS011;5692;48.956;9.200;2023-03-19T09:26:23;178.40;;;169.85;;
11269;SDS011;5692;48.956;9.200;2023-03-19T09:28:49;181.03;;;172.37;;
11269;SDS011;5692;48.956;9.200;2023-03-19T09:31:15;199.68;;;190.13;;
11269;SDS011;5692;48.956;9.200;2023-03-19T09:33:41;221.33;;;210.73;;
11269;SDS011;5692;48.956;9.200;2023-03-19T09:36:07;217.27;;;206.87;;
11269;SDS011;5692;48.956;9.200;2023-03-19T09:38:33;210.40;;;200.35;;
11269;SDS011;5692;48.956;9.200;2023-03-19T09:41:13;201.90;;;192.20;;
11269;SDS011;5692;48.956;9.200;2023-03-19T09:46:14;198.55;;;189.05;;
11269;SDS011;5692;48.956;9.200;2023-03-19T09:48:42;201.32;;;191.73;;
11269;SDS011;5692;48.956;9.200;2023-03-19T09:51:14;189.40;;;180.30;;
11269;SDS011;5692;48.956;9.200;2023-03-19T09:56:15;189.45;;;180.38;;
11269;SDS011;5692;48.956;9.200;2023-03-19T09:58:43;203.95;;;194.20;;
11269;SDS011;5692;48.956;9.200;2023-03-19T10:01:15;208.53;;;198.57;;
11269;SDS011;5692;48.956;9.200;2023-03-19T10:06:15;264.93;;;252.27;;
11269;SDS011;5692;48.956;9.200;2023-03-19T10:08:52;255.18;;;242.98;;
11269;SDS011;5692;48.956;9.200;2023-03-19T10:16:23;267.40;;;254.60;;
11269;SDS011;5692;48.956;9.200;2023-03-19T10:18:50;261.27;;;248.77;;
11269;SDS011;5692;48.956;9.200;2023-03-19T10:26:16;276.77;;;263.58;;
11269;SDS011;5692;48.956;9.200;2023-03-19T10:28:44;276.65;;;263.45;;
11269;SDS011;5692;48.956;9.200;2023-03-19T10:33:57;283.15;;;269.63;;
11269;SDS011;5692;48.956;9.200;2023-03-19T10:36:30;268.35;;;255.50;;
11269;SDS011;5692;48.956;9.200;2023-03-19T10:38:58;274.80;;;261.65;;
11269;SDS011;5692;48.956;9.200;2023-03-19T10:43:53;251.70;;;239.68;;
11269;SDS011;5692;48.956;9.200;2023-03-19T10:46:21;168.13;;;160.05;;
11269;SDS011;5692;48.956;9.200;2023-03-19T10:48:47;182.88;;;174.13;;
11269;SDS011;5692;48.956;9.200;2023-03-19T10:51:14;164.82;;;156.93;;
11269;SDS011;5692;48.956;9.200;2023-03-19T10:53:41;116.20;;;110.60;;
11269;SDS011;5692;48.956;9.200;2023-03-19T10:58:54;68.30;;;65.00;;
11269;SDS011;5692;48.956;9.200;2023-03-19T11:01:20;45.00;;;42.80;;
11269;SDS011;5692;48.956;9.200;2023-03-19T11:06:16;84.80;;;80.70;;
11269;SDS011;5692;48.956;9.200;2023-03-19T11:08:47;75.78;;;72.10;;
11269;SDS011;5692;48.956;9.200;2023-03-19T11:17:02;142.70;;;135.85;;
11269;SDS011;5692;48.956;9.200;2023-03-19T11:19:29;164.05;;;156.20;;
11269;SDS011;5692;48.956;9.200;2023-03-19T11:22:18;164.63;;;156.73;;
11269;SDS011;5692;48.956;9.200;2023-03-19T11:27:16;169.68;;;161.55;;
11269;SDS011;5692;48.956;9.200;2023-03-19T11:29:43;215.33;;;205.03;;
11269;SDS011;5692;48.956;9.200;2023-03-19T11:37:10;4.50;;;1.08;;
11269;SDS011;5692;48.956;9.200;2023-03-19T11:40:25;7.40;;;1.33;;
11269;SDS011;5692;48.956;9.200;2023-03-19T11:45:04;4.95;;;1.15;;
11269;SDS011;5692;48.956;9.200;2023-03-19T11:52:36;246.50;;;234.73;;
11269;SDS011;5692;48.956;9.200;2023-03-19T12:00:24;247.38;;;235.52;;
11269;SDS011;5692;48.956;9.200;2023-03-19T12:11:09;209.10;;;199.10;;
11269;SDS011;5692;48.956;9.200;2023-03-19T12:13:49;202.57;;;192.87;;
11269;SDS011;5692;48.956;9.200;2023-03-19T12:21:39;8.38;;;1.65;;
11269;SDS011;5692;48.956;9.200;2023-03-19T12:34:23;264.60;;;251.95;;
11269;SDS011;5692;48.956;9.200;2023-03-19T12:39:24;261.30;;;248.80;;
11269;SDS011;5692;48.956;9.200;2023-03-19T12:41:51;270.48;;;257.52;;
11269;SDS011;5692;48.956;9.200;2023-03-19T12:54:57;245.63;;;233.88;;
11269;SDS011;5692;48.956;9.200;2023-03-19T12:57:34;248.80;;;236.90;;
11269;SDS011;5692;48.956;9.200;2023-03-19T13:00:04;216.85;;;206.45;;
11269;SDS011;5692;48.956;9.200;2023-03-19T13:05:06;226.95;;;216.10;;
11269;SDS011;5692;48.956;9.200;2023-03-19T13:07:44;205.82;;;195.98;;
11269;SDS011;5692;48.956;9.200;2023-03-19T13:10:17;194.20;;;184.90;;
11269;SDS011;5692;48.956;9.200;2023-03-19T13:12:44;205.93;;;196.07;;
11269;SDS011;5692;48.956;9.200;2023-03-19T13:15:12;201.43;;;191.80;;
11269;SDS011;5692;48.956;9.200;2023-03-19T13:22:48;197.70;;;188.20;;
11269;SDS011;5692;48.956;9.200;2023-03-19T13:25:16;222.23;;;211.60;;
11269;SDS011;5692;48.956;9.200;2023-03-19T13:27:51;211.18;;;201.07;;
11269;SDS011;5692;48.956;9.200;2023-03-19T13:30:18;202.45;;;192.75;;
11269;SDS011;5692;48.956;9.200;2023-03-19T13:32:47;206.48;;;196.57;;
11269;SDS011;5692;48.956;9.200;2023-03-19T13:37:56;200.18;;;190.60;;
11269;SDS011;5692;48.956;9.200;2023-03-19T13:45:50;201.00;;;191.40;;
11269;SDS011;5692;48.956;9.200;2023-03-19T13:51:00;190.43;;;181.32;;
11269;SDS011;5692;48.956;9.200;2023-03-19T13:55:59;192.68;;;183.45;;
11269;SDS011;5692;48.956;9.200;2023-03-19T13:58:28;207.45;;;197.50;;
11269;SDS011;5692;48.956;9.200;2023-03-19T14:03:55;204.32;;;194.55;;
11269;SDS011;5692;48.956;9.200;2023-03-19T14:06:42;199.30;;;189.75;;
11269;SDS011;5692;48.956;9.200;2023-03-19T14:11:54;217.75;;;207.32;;
11269;SDS011;5692;48.956;9.200;2023-03-19T14:14:20;197.68;;;188.23;;
11269;SDS011;5692;48.956;9.200;2023-03-19T14:16:48;208.68;;;198.68;;
11269;SDS011;5692;48.956;9.200;2023-03-19T14:19:16;193.95;;;184.65;;
11269;SDS011;5692;48.956;9.200;2023-03-19T14:24:28;200.40;;;190.80;;
11269;SDS011;5692;48.956;9.200;2023-03-19T14:27:02;204.90;;;195.10;;
11269;SDS011;5692;48.956;9.200;2023-03-19T14:29:29;212.82;;;202.65;;
11269;SDS011;5692;48.956;9.200;2023-03-19T14:31:56;204.75;;;194.95;;
11269;SDS011;5692;48.956;9.200;2023-03-19T14:34:34;210.85;;;200.75;;
11269;SDS011;5692;48.956;9.200;2023-03-19T14:37:14;214.43;;;204.18;;
11269;SDS011;5692;48.956;9.200;2023-03-19T14:39:42;202.65;;;192.95;;
11269;SDS011;5692;48.956;9.200;2023-03-19T14:42:21;206.63;;;196.73;;
11269;SDS011;5692;48.956;9.200;2023-03-19T14:52:54;207.98;;;198.02;;
11269;SDS011;5692;48.956;9.200;2023-03-19T14:55:22;193.00;;;183.77;;
11269;SDS011;5692;48.956;9.200;2023-03-19T14:57:59;205.40;;;195.57;;
11269;SDS011;5692;48.956;9.200;2023-03-19T15:00:25;199.48;;;189.93;;
11269;SDS011;5692;48.956;9.200;2023-03-19T15:02:51;205.63;;;195.82;;
11269;SDS011;5692;48.956;9.200;2023-03-19T15:05:23;196.93;;;187.50;;
11269;SDS011;5692;48.956;9.200;2023-03-19T15:07:52;182.95;;;174.20;;
11269;SDS011;5692;48.956;9.200;2023-03-19T15:10:19;188.95;;;179.90;;
11269;SDS011;5692;48.956;9.200;2023-03-19T15:15:17;198.60;;;189.10;;
11269;SDS011;5692;48.956;9.200;2023-03-19T15:17:46;203.50;;;193.75;;
11269;SDS011;5692;48.956;9.200;2023-03-19T15:20:17;200.75;;;191.15;;
11269;SDS011;5692;48.956;9.200;2023-03-19T15:22:51;201.88;;;192.23;;
11269;SDS011;5692;48.956;9.200;2023-03-19T15:25:18;192.60;;;183.40;;
11269;SDS011;5692;48.956;9.200;2023-03-19T15:27:44;190.68;;;181.52;;
11269;SDS011;5692;48.956;9.200;2023-03-19T15:30:24;204.18;;;194.38;;
11269;SDS011;5692;48.956;9.200;2023-03-19T15:32:53;185.13;;;176.23;;
11269;SDS011;5692;48.956;9.200;2023-03-19T15:35:20;192.15;;;182.95;;
11269;SDS011;5692;48.956;9.200;2023-03-19T15:37:48;195.00;;;185.70;;
11269;SDS011;5692;48.956;9.200;2023-03-19T15:40:16;195.38;;;186.02;;
11269;SDS011;5692;48.956;9.200;2023-03-19T15:42:44;209.73;;;199.70;;
11269;SDS011;5692;48.956;9.200;2023-03-19T15:45:12;197.50;;;188.05;;
11269;SDS011;5692;48.956;9.200;2023-03-19T15:47:41;196.95;;;187.52;;
11269;SDS011;5692;48.956;9.200;2023-03-19T15:50:11;205.85;;;196.00;;
11269;SDS011;5692;48.956;9.200;2023-03-19T15:52:40;202.75;;;193.05;;
11269;SDS011;5692;48.956;9.200;2023-03-19T15:55:06;184.27;;;175.48;;
11269;SDS011;5692;48.956;9.200;2023-03-19T15:57:33;185.88;;;176.98;;
11269;SDS011;5692;48.956;9.200;2023-03-19T16:00:00;204.77;;;194.98;;
11269;SDS011;5692;48.956;9.200;2023-03-19T16:02:32;204.13;;;194.32;;
11269;SDS011;5692;48.956;9.200;2023-03-19T16:04:59;205.55;;;195.73;;
11269;SDS011;5692;48.956;9.200;2023-03-19T16:07:32;205.40;;;195.57;;
11269;SDS011;5692;48.956;9.200;2023-03-19T16:10:19;205.45;;;195.60;;
11269;SDS011;5692;48.956;9.200;2023-03-19T16:12:49;207.88;;;197.93;;
11269;SDS011;5692;48.956;9.200;2023-03-19T16:15:28;213.15;;;202.95;;
11269;SDS011;5692;48.956;9.200;2023-03-19T16:17:54;206.32;;;196.43;;
11269;SDS011;5692;48.956;9.200;2023-03-19T16:20:20;196.23;;;186.82;;
11269;SDS011;5692;48.956;9.200;2023-03-19T16:22:52;188.45;;;179.43;;
11269;SDS011;5692;48.956;9.200;2023-03-19T16:25:18;190.43;;;181.32;;